sensor_id;sensor_type;location;lat;lon;timestamp;pressure;altitude;pressure_sealevel;temperature;humidity
11985;BME280;6052;53.246;10.368;2023-08-01T00:00:04;99297.78;;;19.97;100.00
11985;BME280;6052;53.246;10.368;2023-08-01T00:02:35;99297.38;;;20.07;100.00
11985;BME280;6052;53.246;10.368;2023-08-01T00:05:05;99296.16;;;19.84;100.00
11985;BME280;6052;53.246;10.368;2023-08-01T00:07:35;99296.22;;;19.75;100.00
11985;BME280;6052;53.246;10.368;2023-08-01T00:10:05;99283.66;;;19.83;100.00
11985;BME280;6052;53.246;10.368;2023-08-01T00:12:37;99283.25;;;19.93;100.00
11985;BME280;6052;53.246;10.368;2023-08-01T00:15:08;99271.88;;;19.91;100.00
11985;BME280;6052;53.246;10.368;2023-08-01T00:17:37;99270.09;;;19.95;100.00
11985;BME280;6052;53.246;10.368;2023-08-01T00:20:08;99271.56;;;19.92;100.00
11985;BME280;6052;53.246;10.368;2023-08-01T00:22:38;99266.72;;;19.98;100.00
11985;BME280;6052;53.246;10.368;2023-08-01T00:25:07;99249.56;;;19.97;100.00
11985;BME280;6052;53.246;10.368;2023-08-01T00:27:39;99242.25;;;20.10;100.00
11985;BME280;6052;53.246;10.368;2023-08-01T00:30:10;99249.56;;;19.97;100.00
11985;BME280;6052;53.246;10.368;2023-08-01T00:32:39;99239.94;;;20.00;100.00
11985;BME280;6052;53.246;10.368;2023-08-01T00:35:09;99231.16;;;19.94;100.00
11985;BME280;6052;53.246;10.368;2023-08-01T00:37:38;99225.84;;;19.98;100.00
11985;BME280;6052;53.246;10.368;2023-08-01T00:40:08;99214.63;;;19.79;100.00
11985;BME280;6052;53.246;10.368;2023-08-01T00:42:41;99211.75;;;19.96;100.00
11985;BME280;6052;53.246;10.368;2023-08-01T00:45:12;99203.78;;;19.91;100.00
11985;BME280;6052;53.246;10.368;2023-08-01T00:47:41;99201.06;;;19.91;100.00
11985;BME280;6052;53.246;10.368;2023-08-01T00:50:11;99200.00;;;19.83;100.00
11985;BME280;6052;53.246;10.368;2023-08-01T00:52:40;99202.00;;;19.95;100.00
11985;BME280;6052;53.246;10.368;2023-08-01T00:55:10;99190.03;;;19.87;100.00
11985;BME280;6052;53.246;10.368;2023-08-01T00:57:42;99193.91;;;19.86;100.00
11985;BME280;6052;53.246;10.368;2023-08-01T01:00:13;99188.13;;;19.88;100.00
11985;BME280;6052;53.246;10.368;2023-08-01T01:02:43;99191.91;;;19.75;100.00
11985;BME280;6052;53.246;10.368;2023-08-01T01:05:13;99183.31;;;19.73;100.00
11985;BME280;6052;53.246;10.368;2023-08-01T01:07:43;99176.31;;;19.84;100.00
11985;BME280;6052;53.246;10.368;2023-08-01T01:10:13;99166.75;;;19.57;100.00
11985;BME280;6052;53.246;10.368;2023-08-01T01:12:45;99176.44;;;19.67;100.00
11985;BME280;6052;53.246;10.368;2023-08-01T01:15:14;99177.38;;;19.50;100.00
11985;BME280;6052;53.246;10.368;2023-08-01T01:17:44;99182.63;;;19.55;100.00
11985;BME280;6052;53.246;10.368;2023-08-01T01:20:13;99180.78;;;19.47;100.00
11985;BME280;6052;53.246;10.368;2023-08-01T01:22:45;99174.66;;;19.50;100.00
11985;BME280;6052;53.246;10.368;2023-08-01T01:25:15;99158.59;;;19.57;100.00
11985;BME280;6052;53.246;10.368;2023-08-01T01:27:45;99162.47;;;19.56;100.00
11985;BME280;6052;53.246;10.368;2023-08-01T01:30:16;99156.41;;;19.51;100.00
11985;BME280;6052;53.246;10.368;2023-08-01T01:32:46;99152.63;;;19.64;100.00
11985;BME280;6052;53.246;10.368;2023-08-01T01:35:16;99154.63;;;19.55;100.00
11985;BME280;6052;53.246;10.368;2023-08-01T01:37:48;99155.66;;;19.62;100.00
11985;BME280;6052;53.246;10.368;2023-08-01T01:40:18;99156.06;;;19.52;100.00
11985;BME280;6052;53.246;10.368;2023-08-01T01:42:47;99156.59;;;19.66;100.00
11985;BME280;6052;53.246;10.368;2023-08-01T01:45:17;99152.13;;;19.62;100.00
11985;BME280;6052;53.246;10.368;2023-08-01T01:47:47;99151.47;;;19.65;100.00
11985;BME280;6052;53.246;10.368;2023-08-01T01:50:16;99150.56;;;19.40;100.00
11985;BME280;6052;53.246;10.368;2023-08-01T01:52:49;99148.50;;;19.58;100.00
11985;BME280;6052;53.246;10.368;2023-08-01T01:55:18;99128.78;;;19.61;100.00
11985;BME280;6052;53.246;10.368;2023-08-01T01:57:48;99112.81;;;19.71;100.00
11985;BME280;6052;53.246;10.368;2023-08-01T02:00:17;99112.69;;;19.68;100.00
11985;BME280;6052;53.246;10.368;2023-08-01T02:02:47;99111.31;;;19.62;100.00
11985;BME280;6052;53.246;10.368;2023-08-01T02:05:16;99109.25;;;19.59;100.00
11985;BME280;6052;53.246;10.368;2023-08-01T02:07:45;99114.84;;;19.62;100.00
11985;BME280;6052;53.246;10.368;2023-08-01T02:10:17;99116.41;;;19.63;100.00
11985;BME280;6052;53.246;10.368;2023-08-01T02:12:47;99107.44;;;19.63;100.00
11985;BME280;6052;53.246;10.368;2023-08-01T02:15:16;99112.97;;;19.54;100.00
11985;BME280;6052;53.246;10.368;2023-08-01T02:17:46;99114.22;;;19.57;100.00
11985;BME280;6052;53.246;10.368;2023-08-01T02:20:15;99118.38;;;19.42;100.00
11985;BME280;6052;53.246;10.368;2023-08-01T02:22:45;99108.47;;;19.38;100.00
11985;BME280;6052;53.246;10.368;2023-08-01T02:25:17;99106.69;;;19.42;100.00
11985;BME280;6052;53.246;10.368;2023-08-01T02:27:46;99114.91;;;19.54;100.00
11985;BME280;6052;53.246;10.368;2023-08-01T02:30:16;99103.47;;;19.60;100.00
11985;BME280;6052;53.246;10.368;2023-08-01T02:32:45;99106.16;;;19.48;100.00
11985;BME280;6052;53.246;10.368;2023-08-01T02:35:15;99102.91;;;19.67;100.00
11985;BME280;6052;53.246;10.368;2023-08-01T02:37:44;99096.06;;;19.49;100.00
11985;BME280;6052;53.246;10.368;2023-08-01T02:40:16;99098.91;;;19.52;100.00
11985;BME280;6052;53.246;10.368;2023-08-01T02:42:46;99091.91;;;19.63;100.00
11985;BME280;6052;53.246;10.368;2023-08-01T02:45:18;99089.16;;;19.51;100.00
11985;BME280;6052;53.246;10.368;2023-08-01T02:47:47;99097.53;;;19.46;100.00
11985;BME280;6052;53.246;10.368;2023-08-01T02:50:16;99092.22;;;19.50;100.00
11985;BME280;6052;53.246;10.368;2023-08-01T02:52:46;99093.38;;;19.61;100.00
11985;BME280;6052;53.246;10.368;2023-08-01T02:55:18;99094.59;;;19.51;100.00
11985;BME280;6052;53.246;10.368;2023-08-01T02:57:47;99079.94;;;19.44;100.00
11985;BME280;6052;53.246;10.368;2023-08-01T03:00:17;99081.66;;;19.28;100.00
11985;BME280;6052;53.246;10.368;2023-08-01T03:02:46;99075.59;;;19.43;100.00
11985;BME280;6052;53.246;10.368;2023-08-01T03:05:16;99075.38;;;19.36;100.00
11985;BME280;6052;53.246;10.368;2023-08-01T03:07:45;99072.19;;;19.34;100.00
11985;BME280;6052;53.246;10.368;2023-08-01T03:10:14;99072.53;;;19.65;100.00
11985;BME280;6052;53.246;10.368;2023-08-01T03:13:03;99068.44;;;19.59;100.00
11985;BME280;6052;53.246;10.368;2023-08-01T03:15:33;99053.00;;;19.63;100.00
11985;BME280;6052;53.246;10.368;2023-08-01T03:18:02;99043.28;;;19.74;100.00
11985;BME280;6052;53.246;10.368;2023-08-01T03:20:32;99053.91;;;19.67;100.00
11985;BME280;6052;53.246;10.368;2023-08-01T03:23:02;99051.19;;;19.67;100.00
11985;BME280;6052;53.246;10.368;2023-08-01T03:25:31;99049.44;;;19.50;100.00
11985;BME280;6052;53.246;10.368;2023-08-01T03:28:04;99053.38;;;19.41;100.00
11985;BME280;6052;53.246;10.368;2023-08-01T03:30:33;99052.31;;;19.54;100.00
11985;BME280;6052;53.246;10.368;2023-08-01T03:33:03;99041.91;;;19.35;100.00
11985;BME280;6052;53.246;10.368;2023-08-01T03:35:32;99049.66;;;19.45;100.00
11985;BME280;6052;53.246;10.368;2023-08-01T03:38:02;99044.56;;;19.44;100.00
11985;BME280;6052;53.246;10.368;2023-08-01T03:40:31;99035.78;;;19.38;100.00
11985;BME280;6052;53.246;10.368;2023-08-01T03:43:04;99044.91;;;19.54;100.00
11985;BME280;6052;53.246;10.368;2023-08-01T03:45:35;99035.63;;;19.55;100.00
11985;BME280;6052;53.246;10.368;2023-08-01T03:48:05;99031.94;;;19.39;100.00
11985;BME280;6052;53.246;10.368;2023-08-01T03:50:34;99030.47;;;19.42;100.00
11985;BME280;6052;53.246;10.368;2023-08-01T03:53:04;99029.22;;;19.39;100.00
11985;BME280;6052;53.246;10.368;2023-08-01T03:55:33;99032.63;;;19.36;100.00
11985;BME280;6052;53.246;10.368;2023-08-01T03:58:05;99032.25;;;19.26;100.00
11985;BME280;6052;53.246;10.368;2023-08-01T04:00:35;99021.97;;;19.43;100.00
11985;BME280;6052;53.246;10.368;2023-08-01T04:03:04;99033.41;;;19.37;100.00
11985;BME280;6052;53.246;10.368;2023-08-01T04:05:34;99027.72;;;19.30;100.00
11985;BME280;6052;53.246;10.368;2023-08-01T04:08:04;99021.38;;;19.38;100.00
11985;BME280;6052;53.246;10.368;2023-08-01T04:10:33;99023.66;;;19.36;100.00
11985;BME280;6052;53.246;10.368;2023-08-01T04:13:05;99032.25;;;19.26;100.00
11985;BME280;6052;53.246;10.368;2023-08-01T04:15:35;99037.84;;;19.21;100.00
11985;BME280;6052;53.246;10.368;2023-08-01T04:18:05;99039.59;;;19.25;100.00
11985;BME280;6052;53.246;10.368;2023-08-01T04:20:34;99039.72;;;19.29;100.00
11985;BME280;6052;53.246;10.368;2023-08-01T04:23:04;99043.31;;;19.41;100.00
11985;BME280;6052;53.246;10.368;2023-08-01T04:25:33;99039.31;;;19.18;100.00
11985;BME280;6052;53.246;10.368;2023-08-01T04:28:05;99033.88;;;19.18;100.00
11985;BME280;6052;53.246;10.368;2023-08-01T04:30:35;99043.56;;;19.28;100.00
11985;BME280;6052;53.246;10.368;2023-08-01T04:33:05;99042.81;;;19.39;100.00
11985;BME280;6052;53.246;10.368;2023-08-01T04:35:34;99036.66;;;19.30;100.00
11985;BME280;6052;53.246;10.368;2023-08-01T04:38:04;99038.84;;;19.16;100.00
11985;BME280;6052;53.246;10.368;2023-08-01T04:40:35;99041.06;;;19.23;100.00
11985;BME280;6052;53.246;10.368;2023-08-01T04:43:06;99037.63;;;18.93;100.00
11985;BME280;6052;53.246;10.368;2023-08-01T04:45:36;99035.91;;;19.21;100.00
11985;BME280;6052;53.246;10.368;2023-08-01T04:48:05;99033.19;;;19.21;100.00
11985;BME280;6052;53.246;10.368;2023-08-01T04:50:35;99028.59;;;19.22;100.00
11985;BME280;6052;53.246;10.368;2023-08-01T04:53:04;99030.66;;;19.25;100.00
11985;BME280;6052;53.246;10.368;2023-08-01T04:55:34;99020.69;;;19.08;100.00
11985;BME280;6052;53.246;10.368;2023-08-01T04:58:03;99026.91;;;19.09;100.00
11985;BME280;6052;53.246;10.368;2023-08-01T05:00:40;99028.44;;;19.18;100.00
11985;BME280;6052;53.246;10.368;2023-08-01T05:03:10;99024.53;;;19.28;100.00
11985;BME280;6052;53.246;10.368;2023-08-01T05:05:40;99016.56;;;19.23;100.00
11985;BME280;6052;53.246;10.368;2023-08-01T05:08:09;99022.59;;;19.08;100.00
11985;BME280;6052;53.246;10.368;2023-08-01T05:10:39;99021.06;;;19.19;100.00
11985;BME280;6052;53.246;10.368;2023-08-01T05:13:08;99019.78;;;19.16;100.00
11985;BME280;6052;53.246;10.368;2023-08-01T05:15:40;99009.59;;;19.13;100.00
11985;BME280;6052;53.246;10.368;2023-08-01T05:18:10;99010.66;;;19.21;100.00
11985;BME280;6052;53.246;10.368;2023-08-01T05:20:39;99015.69;;;19.31;100.00
11985;BME280;6052;53.246;10.368;2023-08-01T05:23:08;99021.84;;;19.19;100.00
11985;BME280;6052;53.246;10.368;2023-08-01T05:25:38;99021.72;;;19.16;100.00
11985;BME280;6052;53.246;10.368;2023-08-01T05:28:07;99023.66;;;19.15;100.00
11985;BME280;6052;53.246;10.368;2023-08-01T05:30:41;99020.81;;;19.12;100.00
11985;BME280;6052;53.246;10.368;2023-08-01T05:33:11;99029.56;;;19.17;100.00
11985;BME280;6052;53.246;10.368;2023-08-01T05:35:40;99020.94;;;19.36;100.00
11985;BME280;6052;53.246;10.368;2023-08-01T05:38:09;99025.13;;;19.13;100.00
11985;BME280;6052;53.246;10.368;2023-08-01T05:40:39;99023.66;;;19.36;100.00
11985;BME280;6052;53.246;10.368;2023-08-01T05:43:09;99026.09;;;19.29;100.00
11985;BME280;6052;53.246;10.368;2023-08-01T05:45:41;99027.19;;;19.36;100.00
11985;BME280;6052;53.246;10.368;2023-08-01T05:48:11;99028.28;;;19.35;100.00
11985;BME280;6052;53.246;10.368;2023-08-01T05:50:40;99033.94;;;19.30;100.00
11985;BME280;6052;53.246;10.368;2023-08-01T05:53:09;99029.97;;;19.28;100.00
11985;BME280;6052;53.246;10.368;2023-08-01T05:55:39;99033.94;;;19.30;100.00
11985;BME280;6052;53.246;10.368;2023-08-01T05:58:08;99031.31;;;19.22;100.00
11985;BME280;6052;53.246;10.368;2023-08-01T06:00:40;99031.94;;;19.19;100.00
11985;BME280;6052;53.246;10.368;2023-08-01T06:03:10;99028.28;;;19.35;100.00
11985;BME280;6052;53.246;10.368;2023-08-01T06:05:40;99029.22;;;19.39;100.00
11985;BME280;6052;53.246;10.368;2023-08-01T06:08:10;99030.47;;;19.21;100.00
11985;BME280;6052;53.246;10.368;2023-08-01T06:10:39;99030.28;;;19.26;100.00
11985;BME280;6052;53.246;10.368;2023-08-01T06:13:09;99029.69;;;19.21;100.00
11985;BME280;6052;53.246;10.368;2023-08-01T06:15:41;99019.78;;;19.37;100.00
11985;BME280;6052;53.246;10.368;2023-08-01T06:18:10;99022.66;;;19.20;100.00
11985;BME280;6052;53.246;10.368;2023-08-01T06:20:40;99027.97;;;19.37;100.00
11985;BME280;6052;53.246;10.368;2023-08-01T06:23:09;99016.88;;;19.42;100.00
11985;BME280;6052;53.246;10.368;2023-08-01T06:25:39;99026.09;;;19.29;100.00
11985;BME280;6052;53.246;10.368;2023-08-01T06:28:08;99019.47;;;19.18;100.00
11985;BME280;6052;53.246;10.368;2023-08-01T06:30:38;99021.59;;;19.33;100.00
11985;BME280;6052;53.246;10.368;2023-08-01T06:33:10;99022.72;;;19.32;100.00
11985;BME280;6052;53.246;10.368;2023-08-01T06:35:39;99019.34;;;19.14;100.00
11985;BME280;6052;53.246;10.368;2023-08-01T06:38:08;99020.88;;;19.03;100.00
11985;BME280;6052;53.246;10.368;2023-08-01T06:40:38;99022.31;;;19.21;100.00
11985;BME280;6052;53.246;10.368;2023-08-01T06:43:07;99019.88;;;19.08;100.00
11985;BME280;6052;53.246;10.368;2023-08-01T06:45:37;99024.72;;;19.23;100.00
11985;BME280;6052;53.246;10.368;2023-08-01T06:48:06;99024.47;;;19.16;100.00
11985;BME280;6052;53.246;10.368;2023-08-01T06:50:38;99029.50;;;19.26;100.00
11985;BME280;6052;53.246;10.368;2023-08-01T06:53:08;99030.56;;;19.13;100.00
11985;BME280;6052;53.246;10.368;2023-08-01T06:55:37;99035.13;;;19.21;100.00
11985;BME280;6052;53.246;10.368;2023-08-01T06:58:07;99036.13;;;19.16;100.00
11985;BME280;6052;53.246;10.368;2023-08-01T07:00:36;99032.13;;;19.22;100.00
11985;BME280;6052;53.246;10.368;2023-08-01T07:03:05;99029.97;;;19.07;100.00
11985;BME280;6052;53.246;10.368;2023-08-01T07:05:38;99026.69;;;19.14;100.00
11985;BME280;6052;53.246;10.368;2023-08-01T07:08:07;99025.88;;;19.22;100.00
11985;BME280;6052;53.246;10.368;2023-08-01T07:10:37;99033.75;;;19.15;100.00
11985;BME280;6052;53.246;10.368;2023-08-01T07:13:07;99034.66;;;19.19;100.00
11985;BME280;6052;53.246;10.368;2023-08-01T07:15:36;99034.53;;;19.36;100.00
11985;BME280;6052;53.246;10.368;2023-08-01T07:18:06;99065.22;;;19.24;100.00
11985;BME280;6052;53.246;10.368;2023-08-01T07:20:37;99053.31;;;18.88;100.00
11985;BME280;6052;53.246;10.368;2023-08-01T07:23:07;99043.63;;;18.99;100.00
11985;BME280;6052;53.246;10.368;2023-08-01T07:25:36;99040.19;;;18.90;100.00
11985;BME280;6052;53.246;10.368;2023-08-01T07:28:06;99045.63;;;18.90;100.00
11985;BME280;6052;53.246;10.368;2023-08-01T07:30:35;99039.41;;;18.89;100.00
11985;BME280;6052;53.246;10.368;2023-08-01T07:33:05;99037.94;;;18.92;100.00
11985;BME280;6052;53.246;10.368;2023-08-01T07:48:29;99040.25;;;18.81;100.00
11985;BME280;6052;53.246;10.368;2023-08-01T07:51:00;99051.13;;;18.81;100.00
11985;BME280;6052;53.246;10.368;2023-08-01T07:53:29;99039.31;;;19.18;100.00
11985;BME280;6052;53.246;10.368;2023-08-01T07:55:59;99047.06;;;19.08;100.00
11985;BME280;6052;53.246;10.368;2023-08-01T07:58:29;99047.59;;;19.01;100.00
11985;BME280;6052;53.246;10.368;2023-08-01T08:01:02;99043.81;;;19.14;100.00
11985;BME280;6052;53.246;10.368;2023-08-01T08:03:34;99044.06;;;19.21;100.00
11985;BME280;6052;53.246;10.368;2023-08-01T08:06:05;99048.00;;;19.12;100.00
11985;BME280;6052;53.246;10.368;2023-08-01T08:08:34;99045.22;;;19.20;100.00
11985;BME280;6052;53.246;10.368;2023-08-01T08:11:04;99057.88;;;19.25;100.00
11985;BME280;6052;53.246;10.368;2023-08-01T08:13:34;99038.13;;;19.07;100.00
11985;BME280;6052;53.246;10.368;2023-08-01T08:16:04;99054.19;;;19.21;100.00
11985;BME280;6052;53.246;10.368;2023-08-01T08:18:36;99052.00;;;19.14;100.00
11985;BME280;6052;53.246;10.368;2023-08-01T08:21:05;99050.28;;;19.10;100.00
11985;BME280;6052;53.246;10.368;2023-08-01T08:23:35;99054.00;;;19.26;100.00
11985;BME280;6052;53.246;10.368;2023-08-01T08:26:04;99057.19;;;19.28;100.00
11985;BME280;6052;53.246;10.368;2023-08-01T08:28:34;99055.25;;;19.28;100.00
11985;BME280;6052;53.246;10.368;2023-08-01T08:31:03;99052.50;;;19.49;100.00
11985;BME280;6052;53.246;10.368;2023-08-01T08:33:36;99050.22;;;19.39;100.00
11985;BME280;6052;53.246;10.368;2023-08-01T08:36:05;99049.09;;;19.52;100.00
11985;BME280;6052;53.246;10.368;2023-08-01T08:38:35;99059.66;;;19.53;100.00
11985;BME280;6052;53.246;10.368;2023-08-01T08:41:09;99061.75;;;19.68;100.00
11985;BME280;6052;53.246;10.368;2023-08-01T08:43:39;99064.69;;;19.63;100.00
11985;BME280;6052;53.246;10.368;2023-08-01T08:46:10;99061.16;;;19.63;100.00
11985;BME280;6052;53.246;10.368;2023-08-01T08:48:45;99070.94;;;19.64;100.00
11985;BME280;6052;53.246;10.368;2023-08-01T08:51:15;99059.78;;;19.57;100.00
11985;BME280;6052;53.246;10.368;2023-08-01T08:53:46;99063.22;;;19.66;100.00
11985;BME280;6052;53.246;10.368;2023-08-01T08:56:19;99050.75;;;19.77;100.00
11985;BME280;6052;53.246;10.368;2023-08-01T08:58:49;99058.72;;;19.82;100.00
11985;BME280;6052;53.246;10.368;2023-08-01T09:01:19;99049.19;;;19.76;100.00
11985;BME280;6052;53.246;10.368;2023-08-01T09:03:52;99056.25;;;19.89;100.00
11985;BME280;6052;53.246;10.368;2023-08-01T09:06:24;99047.81;;;19.70;100.00
11985;BME280;6052;53.246;10.368;2023-08-01T09:09:02;99052.22;;;19.74;100.00
11985;BME280;6052;53.246;10.368;2023-08-01T09:11:42;99044.75;;;19.83;100.00
11985;BME280;6052;53.246;10.368;2023-08-01T09:14:12;99039.22;;;19.92;100.00
11985;BME280;6052;53.246;10.368;2023-08-01T09:16:42;99042.63;;;20.01;100.00
11985;BME280;6052;53.246;10.368;2023-08-01T09:19:20;99038.75;;;20.02;100.00
11985;BME280;6052;53.246;10.368;2023-08-01T09:21:49;99030.66;;;20.14;100.00
11985;BME280;6052;53.246;10.368;2023-08-01T09:24:20;99030.38;;;20.07;100.00
11985;BME280;6052;53.246;10.368;2023-08-01T09:27:02;99026.88;;;20.06;100.00
11985;BME280;6052;53.246;10.368;2023-08-01T09:29:32;99028.47;;;20.07;100.00
11985;BME280;6052;53.246;10.368;2023-08-01T09:32:11;99023.13;;;20.11;100.00
11985;BME280;6052;53.246;10.368;2023-08-01T09:34:44;99029.97;;;20.29;100.00
11985;BME280;6052;53.246;10.368;2023-08-01T09:37:13;99017.69;;;20.11;100.00
11985;BME280;6052;53.246;10.368;2023-08-01T09:39:42;99027.81;;;20.22;100.00
11985;BME280;6052;53.246;10.368;2023-08-01T09:42:13;99030.88;;;20.09;100.00
11985;BME280;6052;53.246;10.368;2023-08-01T09:44:45;99031.22;;;20.07;100.00
11985;BME280;6052;53.246;10.368;2023-08-01T09:47:14;99030.59;;;20.02;100.00
11985;BME280;6052;53.246;10.368;2023-08-01T09:49:51;99022.63;;;19.97;100.00
11985;BME280;6052;53.246;10.368;2023-08-01T09:52:26;99021.88;;;20.08;100.00
11985;BME280;6052;53.246;10.368;2023-08-01T09:54:56;99017.88;;;20.06;97.97
11985;BME280;6052;53.246;10.368;2023-08-01T09:57:29;99014.19;;;20.10;97.72
11985;BME280;6052;53.246;10.368;2023-08-01T09:59:59;99017.00;;;20.26;98.14
11985;BME280;6052;53.246;10.368;2023-08-01T10:02:30;99031.34;;;20.23;96.23
11985;BME280;6052;53.246;10.368;2023-08-01T10:05:05;99027.44;;;20.36;95.72
11985;BME280;6052;53.246;10.368;2023-08-01T10:07:38;99027.13;;;20.49;96.47
11985;BME280;6052;53.246;10.368;2023-08-01T10:10:08;99020.09;;;20.48;96.39
11985;BME280;6052;53.246;10.368;2023-08-01T10:12:39;99034.13;;;20.62;97.49
11985;BME280;6052;53.246;10.368;2023-08-01T10:15:12;99021.44;;;20.54;96.85
11985;BME280;6052;53.246;10.368;2023-08-01T10:17:41;99032.88;;;20.60;94.84
11985;BME280;6052;53.246;10.368;2023-08-01T10:20:15;99042.09;;;20.55;93.81
11985;BME280;6052;53.246;10.368;2023-08-01T10:22:46;99026.78;;;20.51;91.44
11985;BME280;6052;53.246;10.368;2023-08-01T10:25:18;99038.34;;;20.60;92.10
11985;BME280;6052;53.246;10.368;2023-08-01T10:27:57;99033.13;;;20.67;89.30
11985;BME280;6052;53.246;10.368;2023-08-01T10:30:27;99043.69;;;20.68;89.87
11985;BME280;6052;53.246;10.368;2023-08-01T10:32:58;99042.66;;;20.73;89.10
11985;BME280;6052;53.246;10.368;2023-08-01T10:35:35;99030.16;;;20.72;89.13
11985;BME280;6052;53.246;10.368;2023-08-01T10:38:06;99042.66;;;20.73;88.44
11985;BME280;6052;53.246;10.368;2023-08-01T10:40:37;99038.19;;;20.80;88.63
11985;BME280;6052;53.246;10.368;2023-08-01T10:43:08;99031.63;;;20.93;88.35
11985;BME280;6052;53.246;10.368;2023-08-01T10:45:48;99033.19;;;20.94;88.77
11985;BME280;6052;53.246;10.368;2023-08-01T10:48:17;99027.84;;;20.98;87.23
11985;BME280;6052;53.246;10.368;2023-08-01T10:50:56;99031.72;;;20.97;86.97
11985;BME280;6052;53.246;10.368;2023-08-01T10:53:37;99022.97;;;20.91;85.22
11985;BME280;6052;53.246;10.368;2023-08-01T10:56:15;99023.44;;;21.21;86.87
11985;BME280;6052;53.246;10.368;2023-08-01T10:58:45;99027.59;;;21.03;85.45
11985;BME280;6052;53.246;10.368;2023-08-01T11:01:15;99022.44;;;21.13;84.45
11985;BME280;6052;53.246;10.368;2023-08-01T11:03:45;99025.28;;;21.17;86.01
11985;BME280;6052;53.246;10.368;2023-08-01T11:06:17;99028.06;;;21.32;85.41
11985;BME280;6052;53.246;10.368;2023-08-01T11:08:46;99026.16;;;21.21;86.63
11985;BME280;6052;53.246;10.368;2023-08-01T11:11:16;99023.34;;;21.45;85.03
11985;BME280;6052;53.246;10.368;2023-08-01T11:13:52;99029.69;;;21.49;85.40
11985;BME280;6052;53.246;10.368;2023-08-01T11:16:23;99032.41;;;21.49;83.60
11985;BME280;6052;53.246;10.368;2023-08-01T11:18:52;99035.19;;;21.37;82.62
11985;BME280;6052;53.246;10.368;2023-08-01T11:21:28;99030.69;;;21.29;81.20
11985;BME280;6052;53.246;10.368;2023-08-01T11:23:57;99016.78;;;21.34;80.97
11985;BME280;6052;53.246;10.368;2023-08-01T11:26:27;99019.09;;;21.47;82.76
11985;BME280;6052;53.246;10.368;2023-08-01T11:29:01;99026.59;;;21.50;83.38
11985;BME280;6052;53.246;10.368;2023-08-01T11:31:30;99026.06;;;21.45;83.53
11985;BME280;6052;53.246;10.368;2023-08-01T11:34:00;99027.13;;;21.56;83.59
11985;BME280;6052;53.246;10.368;2023-08-01T11:36:33;99032.41;;;21.49;82.88
11985;BME280;6052;53.246;10.368;2023-08-01T11:39:02;99034.28;;;21.60;83.79
11985;BME280;6052;53.246;10.368;2023-08-01T11:41:33;99020.50;;;21.69;83.79
11985;BME280;6052;53.246;10.368;2023-08-01T11:44:03;99028.34;;;21.70;82.46
11985;BME280;6052;53.246;10.368;2023-08-01T11:46:34;99032.91;;;21.66;80.80
11985;BME280;6052;53.246;10.368;2023-08-01T11:49:05;99030.22;;;21.54;80.68
11985;BME280;6052;53.246;10.368;2023-08-01T11:51:44;99058.50;;;21.46;81.72
11985;BME280;6052;53.246;10.368;2023-08-01T11:54:14;99121.63;;;21.05;90.73
11985;BME280;6052;53.246;10.368;2023-08-01T11:56:44;99167.06;;;20.41;95.76
11985;BME280;6052;53.246;10.368;2023-08-01T11:59:15;99150.44;;;20.22;97.15
11985;BME280;6052;53.246;10.368;2023-08-01T12:01:46;99132.94;;;20.23;96.31
11985;BME280;6052;53.246;10.368;2023-08-01T12:04:24;99128.56;;;20.79;94.57
11985;BME280;6052;53.246;10.368;2023-08-01T12:06:56;99125.38;;;20.77;93.53
11985;BME280;6052;53.246;10.368;2023-08-01T12:09:31;99123.81;;;20.76;93.68
11985;BME280;6052;53.246;10.368;2023-08-01T12:12:01;99127.78;;;20.90;94.62
11985;BME280;6052;53.246;10.368;2023-08-01T12:14:30;99118.69;;;20.74;95.00
11985;BME280;6052;53.246;10.368;2023-08-01T12:17:00;99118.31;;;20.88;95.67
11985;BME280;6052;53.246;10.368;2023-08-01T12:19:30;99128.78;;;20.86;96.80
11985;BME280;6052;53.246;10.368;2023-08-01T12:22:03;99124.69;;;20.80;99.28
11985;BME280;6052;53.246;10.368;2023-08-01T12:24:32;99121.16;;;20.67;100.00
11985;BME280;6052;53.246;10.368;2023-08-01T12:27:05;99115.16;;;20.98;100.00
11985;BME280;6052;53.246;10.368;2023-08-01T12:29:36;99118.59;;;20.95;100.00
11985;BME280;6052;53.246;10.368;2023-08-01T12:32:05;99112.75;;;20.96;100.00
11985;BME280;6052;53.246;10.368;2023-08-01T12:34:36;99119.47;;;20.99;100.00
11985;BME280;6052;53.246;10.368;2023-08-01T12:37:08;99110.47;;;20.86;100.00
11985;BME280;6052;53.246;10.368;2023-08-01T12:39:37;99119.25;;;20.92;100.00
11985;BME280;6052;53.246;10.368;2023-08-01T12:42:07;99131.84;;;20.84;100.00
11985;BME280;6052;53.246;10.368;2023-08-01T12:44:36;99133.53;;;20.89;100.00
11985;BME280;6052;53.246;10.368;2023-08-01T12:47:06;99135.19;;;20.90;100.00
11985;BME280;6052;53.246;10.368;2023-08-01T12:49:38;99147.13;;;20.97;100.00
11985;BME280;6052;53.246;10.368;2023-08-01T12:52:10;99142.28;;;20.82;100.00
11985;BME280;6052;53.246;10.368;2023-08-01T12:54:39;99134.25;;;20.86;100.00
11985;BME280;6052;53.246;10.368;2023-08-01T12:57:09;99137.91;;;20.90;100.00
11985;BME280;6052;53.246;10.368;2023-08-01T12:59:38;99138.47;;;20.83;100.00
11985;BME280;6052;53.246;10.368;2023-08-01T13:02:08;99144.78;;;20.87;100.00
11985;BME280;6052;53.246;10.368;2023-08-01T13:04:37;99139.91;;;20.69;100.00
11985;BME280;6052;53.246;10.368;2023-08-01T13:07:06;99147.22;;;20.77;100.00
11985;BME280;6052;53.246;10.368;2023-08-01T13:09:39;99139.47;;;20.79;100.00
11985;BME280;6052;53.246;10.368;2023-08-01T13:12:08;99139.81;;;20.53;100.00
11985;BME280;6052;53.246;10.368;2023-08-01T13:14:38;99139.47;;;20.67;100.00
11985;BME280;6052;53.246;10.368;2023-08-01T13:17:07;99134.16;;;20.58;100.00
11985;BME280;6052;53.246;10.368;2023-08-01T13:19:36;99127.88;;;20.58;100.00
11985;BME280;6052;53.246;10.368;2023-08-01T13:22:06;99124.25;;;20.54;100.00